Gokango Airport


Codes: FCMG/
Name: Gokango Airport
City: Gokango
Country: Congo [Republic]
Elevation: 820 ft.

Photos at Gokango Airport


   Photos courtesy of SpottingLog. You can add your own sightings and photos by signing up for a free trial today.



No photos found.

Weather at Gokango Airport


Time (UTC)DescriptionTempratureWindCloud coverageVisibilityPressureHumidity
23-May-2024 21:00Broken Clouds24°C0 mph, NW69%10000m1012hPa82%
24-May-2024 00:00Broken Clouds24°C0 mph, S76%10000m1012hPa87%
24-May-2024 03:00Overcast Clouds22°C0 mph, NE91%10000m1012hPa95%
24-May-2024 06:00Overcast Clouds22°C0 mph, N96%10000m1013hPa93%
24-May-2024 09:00Overcast Clouds26°C0 mph, SE97%10000m1014hPa76%
24-May-2024 12:00Overcast Clouds28°C2 mph, NW93%10000m1012hPa69%
24-May-2024 15:00Overcast Clouds25°C2 mph, N97%10000m1011hPa83%
24-May-2024 18:00Light Rain24°C2 mph, NW99%10000m1012hPa88%
24-May-2024 21:00Overcast Clouds23°C2 mph, NW95%10000m1014hPa91%
25-May-2024 00:00Light Rain22°C2 mph, N97%10000m1013hPa95%
25-May-2024 03:00Overcast Clouds22°C2 mph, NW100%10000m1012hPa95%
25-May-2024 06:00Overcast Clouds22°C2 mph, NW100%10000m1014hPa94%
25-May-2024 09:00Broken Clouds28°C2 mph, W77%10000m1015hPa70%
25-May-2024 12:00Light Rain30°C2 mph, W87%10000m1012hPa63%
25-May-2024 15:00Light Rain29°C2 mph, NW94%10000m1010hPa64%
25-May-2024 18:00Light Rain24°C2 mph, NW96%10000m1012hPa89%
25-May-2024 21:00Light Rain23°C0 mph, SW96%10000m1014hPa95%
26-May-2024 00:00Light Rain22°C0 mph, N94%10000m1013hPa97%
26-May-2024 03:00Overcast Clouds21°C0 mph, NE95%10000m1013hPa98%
26-May-2024 06:00Overcast Clouds22°C2 mph, SE93%10000m1014hPa97%
26-May-2024 09:00Overcast Clouds25°C2 mph, NE97%10000m1015hPa84%
26-May-2024 12:00Overcast Clouds30°C0 mph, NW92%10000m1013hPa63%
26-May-2024 15:00Broken Clouds30°C2 mph, SW75%10000m1011hPa61%
26-May-2024 18:00Light Rain24°C0 mph, NW58%10000m1012hPa87%
26-May-2024 21:00Light Rain23°C2 mph, SW49%10000m1014hPa95%
27-May-2024 00:00Broken Clouds23°C0 mph, SE66%10000m1014hPa96%
27-May-2024 03:00Overcast Clouds22°C2 mph, NW99%10000m1012hPa98%
27-May-2024 06:00Overcast Clouds22°C0 mph, NW88%10000m1014hPa97%
27-May-2024 09:00Light Rain25°C2 mph, SE90%10000m1015hPa85%
27-May-2024 12:00Overcast Clouds30°C0 mph, SW95%10000m1013hPa64%
27-May-2024 15:00Overcast Clouds30°C0 mph, NW100%10000m1011hPa63%
27-May-2024 18:00Overcast Clouds25°C2 mph, N98%10000m1012hPa83%
27-May-2024 21:00Overcast Clouds24°C2 mph, S100%10000m1013hPa88%
28-May-2024 00:00Overcast Clouds23°C2 mph, S100%10000m1013hPa94%
28-May-2024 03:00Overcast Clouds22°C0 mph, NW100%10000m1012hPa97%
28-May-2024 06:00Overcast Clouds23°C0 mph, SW93%10000m1014hPa93%
28-May-2024 09:00Overcast Clouds27°C2 mph, SW90%10000m1015hPa73%
28-May-2024 12:00Overcast Clouds31°C2 mph, SW89%10000m1012hPa58%
28-May-2024 15:00Overcast Clouds30°C2 mph, N86%10000m1010hPa64%
28-May-2024 18:00Light Rain25°C2 mph, W72%10000m1012hPa83%